createdAt,value
2022-08-31T00:00:11.290Z,40.02
2022-08-31T00:02:57.534Z,40.20
2022-08-31T00:05:24.406Z,40.14
2022-08-31T00:07:51.931Z,39.99
2022-08-31T00:10:20.385Z,40.24
2022-08-31T00:13:00.136Z,40.35
2022-08-31T00:15:27.802Z,40.20
2022-08-31T00:17:56.191Z,40.15
2022-08-31T00:20:32.489Z,40.21
2022-08-31T00:23:05.116Z,39.89
2022-08-31T00:25:33.737Z,40.10
2022-08-31T00:28:00.287Z,40.07
2022-08-31T00:30:26.968Z,40.10
2022-08-31T00:32:53.591Z,40.19
2022-08-31T00:35:24.115Z,40.25
2022-08-31T00:37:50.683Z,40.22
2022-08-31T00:40:17.348Z,39.99
2022-08-31T00:42:43.966Z,40.43
2022-08-31T00:45:11.070Z,40.13
2022-08-31T00:47:38.117Z,40.25
2022-08-31T00:50:07.989Z,40.09
2022-08-31T00:52:39.012Z,40.11
2022-08-31T00:55:13.170Z,40.22
2022-08-31T00:57:41.709Z,40.45
2022-08-31T01:00:12.259Z,40.52
2022-08-31T01:02:39.287Z,40.42
2022-08-31T01:05:07.094Z,40.32
2022-08-31T01:07:33.705Z,40.28
2022-08-31T01:10:00.431Z,40.23
2022-08-31T01:12:27.906Z,40.13
2022-08-31T01:14:55.504Z,40.11
2022-08-31T01:17:22.175Z,40.30
2022-08-31T01:20:14.189Z,40.23
2022-08-31T01:23:02.281Z,40.09
2022-08-31T01:25:33.773Z,40.51
2022-08-31T01:28:02.659Z,40.34
2022-08-31T01:30:29.220Z,40.43
2022-08-31T01:32:55.800Z,40.52
2022-08-31T01:35:22.366Z,40.44
2022-08-31T01:37:49.532Z,40.36
2022-08-31T01:40:17.169Z,40.55
2022-08-31T01:42:43.760Z,40.62
2022-08-31T01:45:10.837Z,40.35
2022-08-31T01:47:39.356Z,40.33
2022-08-31T01:50:06.351Z,40.66
2022-08-31T01:52:34.215Z,40.44
2022-08-31T01:55:03.532Z,40.55
2022-08-31T01:57:33.411Z,40.59
2022-08-31T02:00:03.142Z,40.30
2022-08-31T02:02:29.795Z,40.51
2022-08-31T02:04:56.404Z,40.69
2022-08-31T02:07:23.012Z,40.79
2022-08-31T02:09:49.574Z,41.03
2022-08-31T02:12:17.492Z,40.82
2022-08-31T02:14:44.064Z,40.62
2022-08-31T02:17:10.780Z,40.46
2022-08-31T02:19:37.359Z,40.77
2022-08-31T02:22:04.052Z,40.71
2022-08-31T02:24:30.671Z,40.77
2022-08-31T02:26:57.276Z,40.46
2022-08-31T02:29:23.911Z,40.89
2022-08-31T02:31:50.744Z,40.68
2022-08-31T02:34:17.437Z,40.83
2022-08-31T02:36:45.342Z,40.77
2022-08-31T02:39:12.577Z,40.68
2022-08-31T02:41:41.645Z,40.94
2022-08-31T02:44:08.280Z,40.86
2022-08-31T02:46:35.036Z,40.76
2022-08-31T02:49:01.971Z,40.75
2022-08-31T02:51:28.572Z,40.71
2022-08-31T02:53:55.251Z,40.98
2022-08-31T02:56:22.691Z,41.00
2022-08-31T02:58:54.919Z,41.21
2022-08-31T03:01:23.164Z,41.19
2022-08-31T03:03:49.935Z,41.05
2022-08-31T03:06:17.559Z,41.17
2022-08-31T03:08:44.111Z,41.06
2022-08-31T03:11:10.850Z,41.31
2022-08-31T03:13:39.321Z,40.95
2022-08-31T03:16:06.644Z,41.20
2022-08-31T03:18:33.772Z,41.11
2022-08-31T03:21:00.445Z,40.87
2022-08-31T03:23:27.095Z,41.17
2022-08-31T03:25:53.658Z,40.96
2022-08-31T03:28:20.315Z,40.94
2022-08-31T03:30:46.964Z,41.05
2022-08-31T03:33:14.036Z,41.36
2022-08-31T03:35:44.716Z,41.30
2022-08-31T03:38:13.042Z,41.44
2022-08-31T03:40:43.565Z,41.02
2022-08-31T03:43:11.471Z,41.09
2022-08-31T03:45:40.109Z,41.16
2022-08-31T03:48:12.004Z,41.45
2022-08-31T03:50:40.399Z,41.38
2022-08-31T03:53:07.872Z,41.23
2022-08-31T03:55:36.423Z,41.23
2022-08-31T03:58:03.231Z,41.08
2022-08-31T04:00:31.364Z,41.27
2022-08-31T04:02:59.787Z,41.28
2022-08-31T04:05:27.963Z,41.39
2022-08-31T04:07:55.072Z,41.40
2022-08-31T04:10:23.082Z,41.05
2022-08-31T04:12:50.297Z,41.37
2022-08-31T04:15:17.962Z,41.20
2022-08-31T04:17:45.532Z,41.44
2022-08-31T04:20:12.160Z,41.46
2022-08-31T04:22:38.735Z,41.22
2022-08-31T04:25:05.676Z,41.17
2022-08-31T04:27:32.269Z,41.52
2022-08-31T04:29:58.869Z,41.30
2022-08-31T04:32:25.525Z,41.19
2022-08-31T04:34:56.115Z,41.18
2022-08-31T04:37:23.224Z,41.22
2022-08-31T04:39:50.838Z,41.29
2022-08-31T04:42:17.908Z,41.59
2022-08-31T04:44:44.491Z,41.69
2022-08-31T04:47:11.093Z,41.62
2022-08-31T04:49:37.739Z,41.40
2022-08-31T04:52:04.328Z,41.44
2022-08-31T04:54:30.888Z,41.79
2022-08-31T04:56:59.195Z,41.37
2022-08-31T04:59:27.440Z,41.53
2022-08-31T05:01:54.805Z,41.55
2022-08-31T05:04:24.574Z,41.50
2022-08-31T05:06:51.355Z,41.78
2022-08-31T05:09:20.584Z,41.95
2022-08-31T05:11:47.495Z,41.96
2022-08-31T05:14:14.065Z,41.54
2022-08-31T05:16:41.767Z,41.85
2022-08-31T05:19:08.805Z,41.70
2022-08-31T05:21:37.758Z,41.91
2022-08-31T05:24:09.447Z,41.83
2022-08-31T05:26:42.125Z,42.28
2022-08-31T05:29:09.395Z,41.82
2022-08-31T05:31:38.108Z,41.91
2022-08-31T05:34:05.639Z,42.03
2022-08-31T05:36:33.248Z,42.10
2022-08-31T05:39:01.464Z,42.26
2022-08-31T05:41:29.530Z,42.06
2022-08-31T05:43:56.090Z,42.46
2022-08-31T05:46:22.845Z,42.89
2022-08-31T05:48:50.088Z,42.98
2022-08-31T05:51:18.249Z,42.37
2022-08-31T05:53:45.551Z,42.54
2022-08-31T05:56:14.465Z,42.54
2022-08-31T05:58:46.207Z,42.63
2022-08-31T06:01:20.135Z,42.27
2022-08-31T06:03:47.327Z,42.58
2022-08-31T06:06:14.473Z,42.57
2022-08-31T06:08:42.233Z,42.48
2022-08-31T06:11:14.268Z,42.74
2022-08-31T06:13:41.932Z,42.89
2022-08-31T06:16:09.786Z,42.97
2022-08-31T06:18:41.019Z,43.15
2022-08-31T06:21:09.571Z,42.86
2022-08-31T06:23:39.736Z,42.87
2022-08-31T06:26:12.717Z,42.72
2022-08-31T06:28:40.613Z,42.82
2022-08-31T06:31:12.146Z,43.03
2022-08-31T06:33:39.941Z,42.92
2022-08-31T06:36:11.495Z,43.15
2022-08-31T06:38:38.671Z,43.19
2022-08-31T06:41:12.482Z,42.98
2022-08-31T06:43:39.547Z,42.76
2022-08-31T06:46:06.812Z,43.13
2022-08-31T06:48:34.830Z,42.97
2022-08-31T06:51:01.431Z,43.30
2022-08-31T06:53:28.870Z,43.24
2022-08-31T06:55:55.727Z,42.91
2022-08-31T06:58:22.288Z,43.10
2022-08-31T07:00:49.391Z,43.03
2022-08-31T07:03:33.043Z,43.03
2022-08-31T07:06:04.759Z,42.79
2022-08-31T07:08:31.800Z,43.04
2022-08-31T07:10:58.473Z,42.98
2022-08-31T07:13:25.599Z,42.99
2022-08-31T07:15:52.237Z,43.33
2022-08-31T07:18:18.891Z,42.89
2022-08-31T07:20:45.564Z,42.94
2022-08-31T07:23:12.196Z,42.76
2022-08-31T07:25:39.500Z,42.95
2022-08-31T07:28:06.461Z,42.63
2022-08-31T07:30:39.939Z,42.83
2022-08-31T07:33:06.804Z,43.08
2022-08-31T07:35:33.532Z,42.90
2022-08-31T07:38:18.588Z,42.63
2022-08-31T07:41:04.061Z,42.50
2022-08-31T07:43:36.577Z,42.42
2022-08-31T07:46:03.246Z,42.69
2022-08-31T07:48:31.739Z,42.77
2022-08-31T07:51:00.226Z,42.46
2022-08-31T07:53:26.896Z,42.72
2022-08-31T07:55:55.660Z,42.56
2022-08-31T07:58:22.717Z,42.71
2022-08-31T08:00:50.426Z,42.40
2022-08-31T08:03:17.138Z,42.60
2022-08-31T08:05:44.144Z,42.46
2022-08-31T08:08:13.874Z,42.30
2022-08-31T08:10:46.654Z,42.52
2022-08-31T08:13:20.460Z,42.41
2022-08-31T08:15:48.795Z,42.25
2022-08-31T08:18:15.480Z,42.25
2022-08-31T08:20:42.154Z,42.02
2022-08-31T08:23:14.550Z,42.11
2022-08-31T08:25:43.587Z,42.31
2022-08-31T08:28:38.254Z,42.16
2022-08-31T08:31:04.960Z,41.98
2022-08-31T08:33:32.117Z,42.12
2022-08-31T08:36:04.790Z,41.82
2022-08-31T08:38:31.877Z,42.09
2022-08-31T08:40:59.961Z,41.96
2022-08-31T08:43:32.473Z,41.76
2022-08-31T08:46:15.164Z,41.61
2022-08-31T08:48:55.368Z,42.00
2022-08-31T08:51:32.559Z,41.62
2022-08-31T08:54:02.128Z,41.87
2022-08-31T08:56:35.800Z,41.85
2022-08-31T08:59:02.389Z,41.52
2022-08-31T09:01:29.674Z,41.74
2022-08-31T09:04:17.174Z,41.66
2022-08-31T09:07:24.082Z,41.79
2022-08-31T09:10:18.831Z,41.45
2022-08-31T09:12:54.289Z,41.59
2022-08-31T09:15:36.481Z,41.20
2022-08-31T09:18:12.575Z,41.58
2022-08-31T09:20:41.240Z,41.50
2022-08-31T09:23:08.209Z,41.54
2022-08-31T09:25:44.720Z,41.37
2022-08-31T09:28:15.222Z,41.55
2022-08-31T09:30:44.741Z,41.36
2022-08-31T09:33:32.565Z,41.05
2022-08-31T09:36:16.316Z,41.05
2022-08-31T09:38:46.931Z,41.22
2022-08-31T09:41:32.166Z,41.41
2022-08-31T09:44:24.520Z,40.88
2022-08-31T09:46:54.301Z,41.01
2022-08-31T09:49:28.883Z,40.79
2022-08-31T09:52:49.310Z,41.02
2022-08-31T09:55:25.392Z,40.95
2022-08-31T09:57:57.663Z,40.73
2022-08-31T10:00:42.671Z,41.08
2022-08-31T10:03:20.801Z,40.79
2022-08-31T10:05:50.529Z,40.42
2022-08-31T10:08:39.243Z,40.42
2022-08-31T10:11:12.285Z,40.47
2022-08-31T10:14:04.493Z,40.41
2022-08-31T10:16:36.417Z,40.73
2022-08-31T10:19:58.358Z,40.61
2022-08-31T10:22:31.868Z,40.46
2022-08-31T10:25:12.907Z,40.41
2022-08-31T10:27:53.202Z,40.49
2022-08-31T10:30:36.449Z,40.62
2022-08-31T10:33:10.707Z,40.54
2022-08-31T10:35:45.868Z,40.33
2022-08-31T10:38:26.195Z,40.45
2022-08-31T10:41:00.235Z,40.52
2022-08-31T10:43:34.717Z,40.63
2022-08-31T10:46:03.588Z,40.17
2022-08-31T10:48:31.978Z,40.47
2022-08-31T10:51:18.134Z,40.47
2022-08-31T10:53:53.766Z,40.42
2022-08-31T10:56:26.162Z,40.21
2022-08-31T10:59:07.158Z,40.90
2022-08-31T11:02:04.398Z,40.70
2022-08-31T11:04:39.999Z,40.48
2022-08-31T11:07:32.865Z,40.43
2022-08-31T11:10:12.078Z,40.49
2022-08-31T11:12:44.600Z,40.74
2022-08-31T11:15:40.253Z,40.38
2022-08-31T11:18:39.889Z,40.60
2022-08-31T11:21:37.820Z,40.39
2022-08-31T11:24:23.012Z,40.44
2022-08-31T11:27:14.485Z,40.14
2022-08-31T11:30:00.725Z,39.97
2022-08-31T11:32:37.724Z,39.94
2022-08-31T11:35:10.375Z,40.06
2022-08-31T11:37:50.993Z,40.02
2022-08-31T11:40:41.659Z,40.00
2022-08-31T11:43:35.057Z,39.78
2022-08-31T11:46:27.226Z,39.97
2022-08-31T11:48:54.848Z,39.88
2022-08-31T11:51:42.539Z,40.07
2022-08-31T11:54:26.702Z,39.75
2022-08-31T11:56:57.663Z,39.54
2022-08-31T11:59:32.527Z,39.47
2022-08-31T12:02:34.650Z,39.47
2022-08-31T12:05:05.286Z,39.69
2022-08-31T12:07:41.268Z,39.55
2022-08-31T12:10:45.113Z,39.41
2022-08-31T12:13:20.458Z,39.67
2022-08-31T12:15:49.816Z,39.76
2022-08-31T12:18:46.697Z,39.47
2022-08-31T12:21:50.784Z,39.23
2022-08-31T12:24:36.150Z,39.25
2022-08-31T12:27:20.085Z,39.31
2022-08-31T12:29:46.771Z,39.77
2022-08-31T12:32:13.294Z,39.53
2022-08-31T12:35:08.886Z,39.14
2022-08-31T12:37:37.335Z,39.34
2022-08-31T12:40:22.623Z,39.39
2022-08-31T12:42:59.345Z,39.45
2022-08-31T12:45:44.085Z,39.43
2022-08-31T12:48:28.951Z,39.65
2022-08-31T12:51:21.098Z,39.73
2022-08-31T12:54:21.688Z,39.55
2022-08-31T12:56:51.138Z,39.54
2022-08-31T12:59:23.585Z,39.09
2022-08-31T13:01:51.153Z,39.48
2022-08-31T13:04:19.321Z,39.50
2022-08-31T13:06:48.288Z,39.07
2022-08-31T13:09:31.847Z,39.22
2022-08-31T13:11:59.518Z,39.23
2022-08-31T13:14:40.582Z,38.79
2022-08-31T13:17:19.649Z,38.83
2022-08-31T13:19:58.597Z,38.70
2022-08-31T13:22:34.974Z,38.80
2022-08-31T13:25:16.426Z,39.04
2022-08-31T13:27:48.663Z,38.72
2022-08-31T13:30:19.129Z,38.76
2022-08-31T13:32:49.802Z,38.75
2022-08-31T13:35:20.997Z,38.90
2022-08-31T13:38:05.442Z,38.66
2022-08-31T13:40:37.819Z,38.84
2022-08-31T13:43:09.559Z,38.83
2022-08-31T13:45:58.212Z,38.98
2022-08-31T13:48:33.932Z,38.57
2022-08-31T13:51:14.741Z,38.42
2022-08-31T13:54:12.900Z,38.13
2022-08-31T13:56:55.374Z,38.44
2022-08-31T13:59:24.547Z,38.14
2022-08-31T14:01:54.552Z,37.69
2022-08-31T14:04:48.478Z,37.98
2022-08-31T14:07:27.588Z,38.28
2022-08-31T14:10:04.945Z,38.09
2022-08-31T14:12:43.949Z,38.06
2022-08-31T14:15:10.448Z,38.02
2022-08-31T14:20:44.139Z,37.27
2022-08-31T14:23:25.807Z,37.90
2022-08-31T14:25:54.521Z,37.63
2022-08-31T14:28:28.043Z,37.93
2022-08-31T14:30:55.790Z,37.66
2022-08-31T14:33:24.148Z,37.40
2022-08-31T14:35:55.441Z,37.88
2022-08-31T14:38:25.090Z,37.62
2022-08-31T14:40:51.738Z,37.82
2022-08-31T14:43:18.528Z,37.72
2022-08-31T14:45:45.337Z,37.76
2022-08-31T14:48:16.824Z,37.93
2022-08-31T14:50:43.517Z,37.69
2022-08-31T14:53:10.308Z,37.80
2022-08-31T14:55:39.641Z,38.00
2022-08-31T14:58:12.115Z,38.01
2022-08-31T15:00:49.779Z,38.32
2022-08-31T15:03:24.257Z,38.00
2022-08-31T15:05:51.268Z,37.17
2022-08-31T15:08:23.301Z,37.49
2022-08-31T15:11:06.152Z,37.77
2022-08-31T15:13:34.058Z,37.37
2022-08-31T15:16:04.057Z,37.94
2022-08-31T15:18:33.735Z,38.03
2022-08-31T15:21:02.231Z,37.89
2022-08-31T15:23:30.629Z,37.81
2022-08-31T15:26:04.134Z,38.14
2022-08-31T15:28:31.716Z,38.17
2022-08-31T15:30:58.985Z,38.32
2022-08-31T15:33:25.805Z,37.85
2022-08-31T15:36:03.370Z,37.97
2022-08-31T15:38:29.948Z,38.44
2022-08-31T15:40:57.716Z,38.36
2022-08-31T15:43:24.483Z,38.21
2022-08-31T15:45:51.319Z,38.03
2022-08-31T15:48:36.794Z,37.97
2022-08-31T15:51:03.645Z,38.00
2022-08-31T15:53:30.672Z,38.06
2022-08-31T15:56:05.797Z,38.17
2022-08-31T15:58:33.784Z,38.21
2022-08-31T16:01:01.113Z,37.88
2022-08-31T16:03:34.362Z,38.09
2022-08-31T16:06:04.125Z,37.86
2022-08-31T16:08:30.791Z,37.95
2022-08-31T16:10:57.384Z,37.58
2022-08-31T16:13:24.004Z,37.60
2022-08-31T16:15:52.279Z,37.35
2022-08-31T16:18:22.381Z,37.85
2022-08-31T16:20:50.443Z,37.56
2022-08-31T16:23:17.264Z,37.81
2022-08-31T16:25:48.582Z,37.70
2022-08-31T16:28:19.340Z,37.79
2022-08-31T16:30:46.192Z,37.87
2022-08-31T16:33:12.819Z,37.62
2022-08-31T16:35:39.679Z,37.75
2022-08-31T16:38:07.078Z,37.71
2022-08-31T16:40:34.167Z,37.71
2022-08-31T16:43:01.598Z,37.95
2022-08-31T16:45:28.289Z,37.82
2022-08-31T16:48:14.954Z,37.59
2022-08-31T16:50:48.628Z,37.75
2022-08-31T16:53:18.073Z,37.76
2022-08-31T16:55:47.337Z,37.98
2022-08-31T16:58:24.925Z,37.99
2022-08-31T17:01:12.682Z,37.85
2022-08-31T17:04:04.908Z,37.63
2022-08-31T17:06:34.424Z,37.92
2022-08-31T17:09:05.501Z,37.93
2022-08-31T17:11:46.123Z,37.73
2022-08-31T17:14:17.631Z,37.95
2022-08-31T17:16:44.639Z,37.90
2022-08-31T17:19:13.591Z,37.90
2022-08-31T17:21:49.748Z,38.10
2022-08-31T17:24:28.290Z,37.80
2022-08-31T17:26:59.612Z,38.05
2022-08-31T17:29:28.052Z,37.90
2022-08-31T17:31:55.951Z,38.03
2022-08-31T17:34:26.898Z,38.26
2022-08-31T17:36:54.805Z,38.22
2022-08-31T17:39:21.897Z,38.38
2022-08-31T17:41:50.530Z,38.21
2022-08-31T17:44:19.515Z,38.32
2022-08-31T17:46:50.056Z,38.01
2022-08-31T17:49:19.172Z,38.38
2022-08-31T17:51:47.997Z,38.38
2022-08-31T17:54:18.872Z,38.25
2022-08-31T17:56:53.386Z,38.31
2022-08-31T17:59:23.233Z,38.48
2022-08-31T18:01:52.390Z,38.64
2022-08-31T18:04:20.862Z,38.64
2022-08-31T18:06:51.528Z,38.67
2022-08-31T18:09:20.364Z,38.85
2022-08-31T18:11:47.788Z,38.71
2022-08-31T18:14:16.648Z,38.85
2022-08-31T18:16:45.009Z,39.29
2022-08-31T18:19:12.342Z,38.91
2022-08-31T18:21:38.957Z,38.70
2022-08-31T18:24:06.420Z,38.79
2022-08-31T18:26:36.335Z,38.63
2022-08-31T18:29:05.864Z,38.73
2022-08-31T18:31:33.359Z,39.20
2022-08-31T18:34:01.743Z,38.61
2022-08-31T18:36:28.914Z,39.16
2022-08-31T18:38:57.653Z,38.79
2022-08-31T18:41:45.752Z,38.90
2022-08-31T18:44:32.024Z,38.86
2022-08-31T18:47:09.454Z,38.58
2022-08-31T18:49:41.922Z,38.97
2022-08-31T18:52:24.567Z,38.58
2022-08-31T18:54:56.493Z,38.59
2022-08-31T18:57:25.206Z,38.56
2022-08-31T18:59:51.918Z,38.93
2022-08-31T19:02:22.744Z,39.01
2022-08-31T19:04:50.785Z,39.15
2022-08-31T19:07:18.743Z,39.19
2022-08-31T19:09:45.907Z,39.01
2022-08-31T19:12:16.262Z,39.08
2022-08-31T19:14:43.680Z,39.03
2022-08-31T19:17:11.610Z,39.19
2022-08-31T19:19:38.243Z,39.18
2022-08-31T19:22:04.912Z,39.21
2022-08-31T19:24:32.944Z,38.99
2022-08-31T19:27:00.421Z,39.18
2022-08-31T19:29:29.867Z,39.31
2022-08-31T19:31:59.361Z,39.20
2022-08-31T19:34:31.862Z,38.91
2022-08-31T19:36:59.546Z,39.27
2022-08-31T19:39:28.713Z,39.04
2022-08-31T19:42:05.881Z,39.42
2022-08-31T19:47:27.914Z,39.37
2022-08-31T19:49:55.159Z,39.49
2022-08-31T19:52:24.278Z,39.03
2022-08-31T19:54:52.219Z,39.28
2022-08-31T19:57:21.479Z,39.09
2022-08-31T19:59:49.662Z,39.14
2022-08-31T20:02:17.224Z,39.38
2022-08-31T20:04:45.318Z,39.44
2022-08-31T20:07:13.542Z,39.63
2022-08-31T20:09:40.385Z,39.17
2022-08-31T20:12:07.094Z,39.64
2022-08-31T20:14:33.744Z,39.63
2022-08-31T20:17:00.514Z,39.60
2022-08-31T20:19:28.217Z,39.37
2022-08-31T20:21:59.961Z,39.35
2022-08-31T20:24:27.447Z,39.38
2022-08-31T20:26:57.251Z,39.27
2022-08-31T20:29:23.940Z,39.51
2022-08-31T20:31:52.366Z,39.57
2022-08-31T20:34:22.073Z,39.17
2022-08-31T20:36:58.518Z,39.31
2022-08-31T20:39:29.505Z,39.66
2022-08-31T20:41:58.837Z,39.56
2022-08-31T20:44:34.823Z,39.39
2022-08-31T20:47:26.637Z,39.50
2022-08-31T20:49:55.778Z,39.64
2022-08-31T20:52:24.770Z,39.92
2022-08-31T20:55:01.751Z,39.58
2022-08-31T20:57:29.604Z,39.70
2022-08-31T20:59:56.218Z,39.67
2022-08-31T21:02:22.894Z,39.54
2022-08-31T21:04:50.151Z,39.79
2022-08-31T21:07:19.054Z,39.91
2022-08-31T21:09:46.298Z,39.81
2022-08-31T21:12:18.108Z,39.92
2022-08-31T21:14:45.623Z,39.75
2022-08-31T21:17:15.831Z,40.07
2022-08-31T21:19:43.549Z,39.95
2022-08-31T21:22:13.153Z,39.89
2022-08-31T21:24:43.369Z,39.65
2022-08-31T21:27:13.581Z,39.57
2022-08-31T21:29:40.282Z,39.93
2022-08-31T21:32:09.480Z,39.77
2022-08-31T21:34:36.741Z,39.64
2022-08-31T21:37:03.402Z,39.81
2022-08-31T21:39:32.257Z,40.00
2022-08-31T21:41:59.329Z,39.61
2022-08-31T21:44:26.144Z,39.69
2022-08-31T21:46:52.825Z,39.65
2022-08-31T21:49:19.640Z,40.11
2022-08-31T21:51:52.297Z,40.00
2022-08-31T21:54:20.921Z,39.94
2022-08-31T21:56:52.927Z,40.13
2022-08-31T21:59:21.056Z,40.22
2022-08-31T22:01:48.157Z,40.22
2022-08-31T22:04:16.227Z,40.16
2022-08-31T22:06:43.229Z,39.85
2022-08-31T22:09:13.548Z,39.85
2022-08-31T22:11:46.038Z,40.08
2022-08-31T22:14:16.404Z,39.94
2022-08-31T22:16:46.610Z,40.22
2022-08-31T22:19:15.528Z,40.23
2022-08-31T22:21:44.499Z,40.40
2022-08-31T22:24:20.915Z,40.06
2022-08-31T22:26:54.748Z,40.04
2022-08-31T22:29:24.403Z,40.01
2022-08-31T22:31:53.631Z,39.98
2022-08-31T22:34:21.165Z,40.38
2022-08-31T22:36:51.991Z,40.07
2022-08-31T22:39:22.489Z,39.98
2022-08-31T22:41:49.577Z,40.10
2022-08-31T22:44:19.365Z,40.25
2022-08-31T22:46:46.528Z,40.16
2022-08-31T22:49:14.406Z,40.09
2022-08-31T22:51:42.349Z,40.20
2022-08-31T22:54:10.180Z,40.12
2022-08-31T22:56:38.672Z,40.33
2022-08-31T22:59:08.321Z,40.22
2022-08-31T23:01:38.295Z,40.15
2022-08-31T23:04:06.878Z,40.34
2022-08-31T23:06:35.447Z,40.52
2022-08-31T23:09:02.996Z,40.35
2022-08-31T23:11:29.714Z,40.26
2022-08-31T23:13:57.352Z,40.42
2022-08-31T23:16:46.432Z,40.21
2022-08-31T23:19:19.848Z,40.42
2022-08-31T23:21:52.537Z,40.39
2022-08-31T23:24:30.402Z,40.58
2022-08-31T23:27:01.648Z,40.16
2022-08-31T23:29:32.063Z,40.52
2022-08-31T23:32:00.788Z,40.49
2022-08-31T23:34:27.988Z,40.40
2022-08-31T23:36:55.598Z,40.29
2022-08-31T23:39:23.795Z,40.79
2022-08-31T23:41:51.112Z,40.44
2022-08-31T23:44:20.475Z,40.58
2022-08-31T23:46:47.320Z,40.41
2022-08-31T23:49:17.379Z,40.71
2022-08-31T23:51:44.405Z,40.69
2022-08-31T23:54:12.528Z,40.57
2022-08-31T23:56:41.760Z,40.35
2022-08-31T23:59:11.500Z,40.29
